Time;durP1;ratioP1;P1;durP2;ratioP2;P2;SDS_P1;SDS_P2;PMS_P1;PMS_P2;Temp;Humidity;BMP_temperature;BMP_pressure;BME280_temperature;BME280_humidity;BME280_pressure;Samples;Min_cycle;Max_cycle;Signal;HPM_P1;HPM_P2
2021/12/26 00:04:51;;;;;;;160.80;54.13;;;;;;;-10.70;82.28;98853.68;4014733;87;21949;-81
2021/12/26 00:10:53;;;;;;;184.17;57.20;;;;;;;-10.80;82.70;98854.02;3997181;87;21514;-80
2021/12/26 00:16:55;;;;;;;210.07;69.13;;;;;;;-10.82;82.67;98856.91;4022747;87;21092;-80
2021/12/26 00:22:56;;;;;;;170.50;54.57;;;;;;;-10.83;82.70;98853.19;4004659;87;21121;-80
2021/12/26 00:28:59;;;;;;;153.63;48.17;;;;;;;-10.89;82.73;98856.28;4021737;87;21088;-80
2021/12/26 00:35:01;;;;;;;140.33;45.60;;;;;;;-10.87;82.93;98849.44;4012401;87;21041;-79
2021/12/26 00:41:03;;;;;;;158.37;50.93;;;;;;;-10.96;82.74;98852.20;4019876;87;21082;-79
2021/12/26 00:47:09;;;;;;;129.37;45.80;;;;;;;-10.95;82.68;98851.16;4010439;87;21730;-79
2021/12/26 00:53:11;;;;;;;122.17;39.10;;;;;;;-11.04;82.55;98853.92;3965472;88;21561;-79
2021/12/26 00:59:14;;;;;;;111.67;37.53;;;;;;;-11.13;82.51;98844.80;3958769;88;21104;-79
2021/12/26 01:05:19;;;;;;;126.03;41.60;;;;;;;-11.23;82.69;98845.42;3965876;89;21037;-78
2021/12/26 01:11:37;;;;;;;107.53;34.73;;;;;;;-11.13;83.45;98852.72;3967371;89;21576;-78
2021/12/26 01:17:43;;;;;;;118.03;41.10;;;;;;;-11.17;82.97;98844.97;3961906;88;21060;-78
2021/12/26 01:23:58;;;;;;;105.37;38.93;;;;;;;-11.30;82.56;98842.13;3960117;89;21050;-77
2021/12/26 01:30:03;;;;;;;73.80;25.63;;;;;;;-11.42;82.55;98843.22;3958110;88;21469;-77
2021/12/26 01:36:05;;;;;;;113.08;34.78;;;;;;;-11.62;82.21;98844.45;3955880;89;21633;-77
2021/12/26 01:42:11;;;;;;;105.20;41.10;;;;;;;-11.65;82.72;98840.22;3962735;88;21050;-78
2021/12/26 01:48:31;;;;;;;91.43;32.30;;;;;;;-11.68;82.63;98842.80;3953224;89;21065;-78
2021/12/26 01:54:44;;;;;;;79.93;28.93;;;;;;;-11.74;82.68;98829.73;3931139;89;21163;-77
2021/12/26 02:00:48;;;;;;;81.77;28.43;;;;;;;-11.80;82.65;98832.81;3964479;88;21092;-78
2021/12/26 02:06:49;;;;;;;82.17;26.40;;;;;;;-11.86;82.58;98825.84;3966293;88;21071;-78
2021/12/26 02:12:51;;;;;;;101.50;31.63;;;;;;;-11.91;82.67;98828.88;3964135;88;21145;-79
2021/12/26 02:18:52;;;;;;;88.93;28.43;;;;;;;-11.89;82.76;98828.14;3951623;89;21057;-78
2021/12/26 02:25:10;;;;;;;90.10;34.43;;;;;;;-11.98;82.65;98838.79;3957545;89;21087;-77
2021/12/26 02:30:58;;;;;;;70.45;26.62;;;;;;;-12.00;82.55;98840.86;3965369;88;21120;-78
2021/12/26 02:36:59;;;;;;;82.77;30.27;;;;;;;-12.06;82.64;98826.77;3964122;88;21089;-78
2021/12/26 02:43:02;;;;;;;91.50;30.00;;;;;;;-12.06;82.59;98829.92;3959237;89;21113;-78
2021/12/26 02:49:05;;;;;;;86.63;29.63;;;;;;;-12.16;82.37;98827.06;3966853;88;21131;-77
2021/12/26 02:55:09;;;;;;;91.77;28.10;;;;;;;-12.23;82.40;98819.28;3966997;88;21056;-77
2021/12/26 03:01:20;;;;;;;87.67;26.37;;;;;;;-12.19;82.55;98818.30;3972526;89;21094;-78
2021/12/26 03:07:21;;;;;;;79.47;23.93;;;;;;;-12.10;82.52;98822.17;3959149;87;21012;-78
2021/12/26 03:13:23;;;;;;;74.33;25.03;;;;;;;-12.00;82.82;98829.78;3955970;89;21061;-78
2021/12/26 03:19:25;;;;;;;64.00;21.37;;;;;;;-11.99;82.39;98823.46;3964441;88;21058;-77
2021/12/26 03:25:27;;;;;;;71.20;24.60;;;;;;;-12.08;82.34;98833.30;3962801;88;21075;-78
2021/12/26 03:31:30;;;;;;;67.93;21.47;;;;;;;-11.98;82.59;98840.89;3969184;89;21062;-78
2021/12/26 03:37:32;;;;;;;61.80;22.37;;;;;;;-11.86;82.96;98843.00;3964429;88;21147;-78
2021/12/26 03:43:36;;;;;;;61.50;22.20;;;;;;;-11.73;82.68;98846.66;3968292;88;21523;-77
2021/12/26 03:49:38;;;;;;;63.23;23.17;;;;;;;-11.83;82.26;98854.41;3967427;88;21530;-78
2021/12/26 03:55:41;;;;;;;65.10;22.07;;;;;;;-11.98;82.16;98854.09;3960716;88;21057;-78
2021/12/26 04:01:42;;;;;;;62.60;20.47;;;;;;;-12.04;82.25;98855.02;3958820;88;21085;-78
2021/12/26 04:07:44;;;;;;;55.87;19.03;;;;;;;-12.12;82.18;98851.97;3939194;89;21116;-78
2021/12/26 04:13:47;;;;;;;60.87;20.40;;;;;;;-12.14;82.43;98860.63;3960660;88;21580;-78
2021/12/26 04:19:48;;;;;;;87.90;24.40;;;;;;;-12.14;82.36;98868.03;3955197;88;21652;-78
2021/12/26 04:25:49;;;;;;;67.07;23.13;;;;;;;-12.12;82.27;98870.44;3957659;89;21339;-78
2021/12/26 04:31:51;;;;;;;56.97;19.93;;;;;;;-12.06;82.40;98875.59;3962751;88;21092;-78
2021/12/26 04:37:54;;;;;;;69.07;22.30;;;;;;;-12.15;82.12;98884.88;3962342;88;21104;-78
2021/12/26 04:43:56;;;;;;;61.67;22.33;;;;;;;-12.20;82.36;98896.67;3959815;88;21148;-77
2021/12/26 04:50:11;;;;;;;73.93;25.80;;;;;;;-12.23;82.34;98895.00;3960859;88;21128;-78
2021/12/26 04:56:16;;;;;;;72.40;22.87;;;;;;;-12.26;82.40;98898.89;3980045;88;21107;-78
2021/12/26 05:02:17;;;;;;;69.60;22.70;;;;;;;-12.28;82.30;98898.34;3980244;88;21104;-78
2021/12/26 05:08:20;;;;;;;70.43;24.23;;;;;;;-12.24;82.47;98903.42;3974112;88;21025;-78
2021/12/26 05:14:21;;;;;;;64.10;21.93;;;;;;;-12.15;82.67;98911.27;3949791;88;21644;-78
2021/12/26 05:20:26;;;;;;;52.00;20.70;;;;;;;-12.08;82.56;98900.59;3949857;89;21124;-78
2021/12/26 05:26:28;;;;;;;62.53;20.53;;;;;;;-12.16;82.25;98895.16;3961464;88;21121;-78
2021/12/26 05:32:29;;;;;;;56.30;20.30;;;;;;;-12.33;82.23;98899.55;3951724;88;21101;-79
2021/12/26 05:38:46;;;;;;;51.90;19.73;;;;;;;-12.18;82.94;98901.72;3961099;88;21077;-78
2021/12/26 05:44:48;;;;;;;58.60;22.77;;;;;;;-11.91;83.74;98896.19;3959687;88;21092;-79
2021/12/26 05:50:52;;;;;;;66.90;20.80;;;;;;;-11.91;82.58;98893.05;3923387;88;21620;-78
2021/12/26 05:57:15;;;;;;;52.33;21.47;;;;;;;-12.16;82.06;98893.84;3934255;89;21068;-78
2021/12/26 06:03:17;;;;;;;;;;;;;;;-12.29;82.12;98895.94;3919381;89;21027;-78
2021/12/26 06:09:19;;;;;;;63.07;22.27;;;;;;;-12.41;82.18;98897.25;3911861;90;20148;-78
2021/12/26 06:15:22;;;;;;;67.97;23.20;;;;;;;-12.47;82.08;98893.41;3933403;89;21144;-77
2021/12/26 06:21:24;;;;;;;59.57;22.10;;;;;;;-12.61;82.01;98893.34;3925635;89;21116;-77
2021/12/26 06:27:44;;;;;;;64.03;22.27;;;;;;;-12.60;82.41;98897.08;3947233;89;21055;-77
2021/12/26 06:34:00;;;;;;;56.30;23.27;;;;;;;-12.62;82.14;98908.36;3952440;88;21141;-77
2021/12/26 06:40:22;;;;;;;76.27;25.50;;;;;;;-12.74;81.98;98906.23;3939930;89;21718;-77
2021/12/26 06:46:40;;;;;;;66.77;22.87;;;;;;;-12.68;82.08;98913.77;3875789;89;21134;-77
2021/12/26 06:52:54;;;;;;;75.50;25.20;;;;;;;-12.76;81.94;98914.88;3933820;88;21124;-77
2021/12/26 06:58:56;;;;;;;81.93;26.50;;;;;;;-12.76;82.10;98917.52;3956519;88;21110;-77
2021/12/26 07:04:58;;;;;;;80.57;26.50;;;;;;;-12.77;82.12;98929.10;3970292;88;21034;-78
2021/12/26 07:11:02;;;;;;;73.60;24.70;;;;;;;-12.82;81.91;98939.52;3962760;88;21085;-77
2021/12/26 07:17:05;;;;;;;61.50;22.00;;;;;;;-12.81;82.13;98942.97;3963728;89;21609;-77
2021/12/26 07:23:07;;;;;;;53.87;21.20;;;;;;;-12.71;82.39;98947.96;3971433;88;21108;-77
2021/12/26 07:29:08;;;;;;;55.27;20.67;;;;;;;-12.57;82.11;98951.20;3931398;88;21130;-77
2021/12/26 07:35:12;;;;;;;55.47;21.27;;;;;;;-12.56;82.09;98956.76;3957061;88;21079;-77
2021/12/26 07:41:17;;;;;;;43.95;20.45;;;;;;;-12.62;82.21;98946.59;3965002;88;21063;-78
2021/12/26 07:47:21;;;;;;;64.50;22.67;;;;;;;-12.36;82.65;98954.08;3951340;88;21094;-77
2021/12/26 07:53:23;;;;;;;63.23;22.03;;;;;;;-12.21;82.70;98966.28;3919887;90;22049;-77
2021/12/26 07:59:43;;;;;;;64.43;25.33;;;;;;;-12.03;82.90;98978.05;3938472;89;21141;-78
2021/12/26 08:06:03;;;;;;;61.83;25.20;;;;;;;-11.69;83.46;98974.56;3941772;89;22048;-78
2021/12/26 08:12:19;;;;;;;155.57;46.80;;;;;;;-11.31;83.60;98978.44;3938746;89;21120;-78
2021/12/26 08:18:21;;;;;;;90.07;29.57;;;;;;;-11.30;83.52;98987.45;3926490;89;21130;-77
2021/12/26 08:24:24;;;;;;;90.47;37.33;;;;;;;-10.97;84.24;98984.09;3936134;88;21103;-77
2021/12/26 08:30:27;;;;;;;105.33;37.73;;;;;;;-10.52;85.24;98981.72;3943514;89;21156;-77
2021/12/26 08:36:28;;;;;;;113.47;40.43;;;;;;;-9.95;85.52;98976.49;3936085;89;21095;-78
2021/12/26 08:42:30;;;;;;;117.40;45.03;;;;;;;-9.40;85.69;98981.72;3937688;89;21082;-80
2021/12/26 08:48:34;;;;;;;129.20;50.20;;;;;;;-8.85;85.92;98986.83;3930202;88;21546;-79
2021/12/26 08:54:38;;;;;;;108.93;43.07;;;;;;;-8.44;85.74;98978.98;3903432;90;21059;-80
2021/12/26 09:00:39;;;;;;;122.50;44.27;;;;;;;-8.16;85.80;98972.00;3914539;89;21103;-78
2021/12/26 09:06:40;;;;;;;114.40;42.90;;;;;;;-7.79;86.04;98969.33;3919531;89;21208;-78
2021/12/26 09:12:43;;;;;;;126.77;45.63;;;;;;;-7.34;86.22;98964.23;3907310;89;21076;-79
2021/12/26 09:18:45;;;;;;;101.63;41.20;;;;;;;-6.85;86.31;98972.11;3927967;89;21152;-80
2021/12/26 09:24:46;;;;;;;96.03;38.07;;;;;;;-6.40;86.32;98971.91;3924826;89;21990;-78
2021/12/26 09:30:48;;;;;;;106.77;40.53;;;;;;;-6.11;85.74;98971.63;3920433;89;21112;-78
2021/12/26 09:36:50;;;;;;;89.57;37.67;;;;;;;-5.74;85.79;98958.73;3921753;90;21155;-79
2021/12/26 09:42:51;;;;;;;90.30;38.13;;;;;;;-5.32;85.65;98946.59;3928698;89;21076;-78
2021/12/26 09:48:52;;;;;;;101.23;39.40;;;;;;;-4.99;85.73;98950.44;3910967;89;21160;-78
2021/12/26 09:54:55;;;;;;;97.30;37.33;;;;;;;-4.62;85.10;98944.63;3957847;89;21071;-78
2021/12/26 10:00:56;;;;;;;88.07;38.43;;;;;;;-4.37;84.99;98935.09;3956966;89;21070;-79
2021/12/26 10:07:15;;;;;;;91.20;37.20;;;;;;;-4.07;84.90;98941.52;3966558;88;22321;-78
2021/12/26 10:13:37;;;;;;;81.23;34.63;;;;;;;-4.05;84.62;98933.98;3959277;88;21672;-79
2021/12/26 10:19:47;;;;;;;88.00;38.33;;;;;;;-3.93;84.31;98933.87;3963980;88;22374;-79
2021/12/26 10:25:49;;;;;;;87.23;35.23;;;;;;;-3.79;84.52;98933.46;3950434;88;21091;-79
2021/12/26 10:32:06;;;;;;;85.80;34.93;;;;;;;-3.48;84.18;98928.59;3953622;89;21113;-79
2021/12/26 10:38:17;;;;;;;73.50;32.27;;;;;;;-3.26;84.35;98933.66;3959840;88;21143;-79
2021/12/26 10:44:33;;;;;;;77.47;32.27;;;;;;;-3.09;83.95;98933.73;3965836;88;21095;-79
2021/12/26 10:50:40;;;;;;;72.05;31.80;;;;;;;-3.07;83.80;98931.56;3961651;88;21124;-80
2021/12/26 10:56:42;;;;;;;78.73;29.93;;;;;;;-3.18;83.44;98928.23;3976264;88;21710;-81
2021/12/26 11:02:55;;;;;;;75.73;31.13;;;;;;;-3.27;83.11;98933.41;3971110;88;21119;-80
2021/12/26 11:08:56;;;;;;;77.73;31.73;;;;;;;-3.47;83.41;98927.50;3972537;88;21171;-80
2021/12/26 11:15:01;;;;;;;72.83;30.83;;;;;;;-3.65;83.01;98930.92;3972791;88;21093;-80
2021/12/26 11:21:08;;;;;;;72.90;29.98;;;;;;;-3.95;83.06;98928.03;3965750;88;21617;-81
2021/12/26 11:27:09;;;;;;;64.90;29.35;;;;;;;-3.95;82.96;98927.22;3969460;88;21056;-81
2021/12/26 11:33:12;;;;;;;81.90;31.37;;;;;;;-4.05;82.81;98924.10;3964877;89;21134;-79
2021/12/26 11:39:14;;;;;;;66.53;30.07;;;;;;;-4.02;82.96;98918.72;3970638;88;21189;-81
2021/12/26 11:45:58;;;;;;;68.37;30.63;;;;;;;-4.08;82.63;98914.50;3973556;88;21106;-81
2021/12/26 11:52:29;;;;;;;69.87;27.73;;;;;;;-4.05;82.81;98914.74;3961300;88;21183;-81
2021/12/26 11:59:11;;;;;;;69.77;29.07;;;;;;;-4.16;82.19;98906.56;3955538;88;21593;-82
2021/12/26 12:05:21;;;;;;;69.17;28.33;;;;;;;-4.20;81.95;98908.74;3950393;88;21020;-81
2021/12/26 12:11:22;;;;;;;71.33;30.07;;;;;;;-4.35;81.23;98900.31;3951350;88;21115;-81
2021/12/26 12:17:32;;;;;;;75.80;29.30;;;;;;;-4.46;81.39;98901.47;3964316;88;21101;-81
2021/12/26 12:23:36;;;;;;;78.70;31.40;;;;;;;-4.46;80.54;98895.35;3962840;88;21143;-81
2021/12/26 12:29:50;;;;;;;76.23;29.20;;;;;;;-4.41;81.12;98901.44;3962520;88;21053;-80
2021/12/26 12:36:22;;;;;;;68.43;29.37;;;;;;;-4.42;80.91;98902.52;3964333;88;21089;-80
2021/12/26 12:42:24;;;;;;;73.00;30.50;;;;;;;-4.43;80.86;98900.91;3960129;88;21068;-81
2021/12/26 12:49:00;;;;;;;71.33;29.20;;;;;;;-4.45;80.63;98905.76;3960219;89;21079;-81
2021/12/26 12:55:01;;;;;;;79.07;30.90;;;;;;;-4.49;80.49;98905.27;3962373;88;21191;-80
2021/12/26 13:01:06;;;;;;;77.47;31.87;;;;;;;-4.63;80.28;98905.61;3952861;88;21049;-81
2021/12/26 13:07:07;;;;;;;87.83;33.63;;;;;;;-4.66;80.15;98900.83;3950768;88;21952;-81
2021/12/26 13:13:16;;;;;;;92.27;34.17;;;;;;;-4.70;80.19;98901.14;3956698;88;21038;-80
2021/12/26 13:19:19;;;;;;;78.90;33.33;;;;;;;-4.72;79.82;98908.63;3956586;88;22038;-81
2021/12/26 13:25:36;;;;;;;88.30;33.60;;;;;;;-4.90;79.64;98911.41;3950510;88;21158;-80
2021/12/26 13:31:38;;;;;;;88.30;34.57;;;;;;;-5.04;79.62;98906.41;3925290;89;21057;-80
2021/12/26 13:37:40;;;;;;;83.77;34.17;;;;;;;-5.12;79.69;98911.03;3924280;89;22179;-80
2021/12/26 13:43:43;;;;;;;79.27;32.60;;;;;;;-5.16;79.68;98913.44;3925244;90;21575;-80
2021/12/26 13:49:47;;;;;;;80.80;33.60;;;;;;;-5.25;79.61;98920.95;3915414;89;21062;-80
2021/12/26 13:55:53;;;;;;;84.87;33.87;;;;;;;-5.33;79.75;98934.87;3925653;89;21111;-80
2021/12/26 14:01:52;;;;;;;89.80;37.87;;;;;;;-5.40;79.63;98929.02;3931659;88;21103;-80
2021/12/26 14:08:01;;;;;;;93.20;37.23;;;;;;;-5.40;79.74;98940.49;3938129;89;22396;-80
2021/12/26 14:14:06;;;;;;;87.08;35.48;;;;;;;-5.52;79.59;98949.34;3957126;88;21100;-81
2021/12/26 14:20:04;;;;;;;84.70;34.57;;;;;;;-5.69;79.65;98948.06;3964113;88;21039;-81
2021/12/26 14:26:10;;;;;;;83.43;35.13;;;;;;;-5.86;79.71;98943.08;3957571;88;21064;-81
2021/12/26 14:32:11;;;;;;;75.90;32.90;;;;;;;-6.05;79.63;98944.70;3952239;88;21134;-81
2021/12/26 14:38:16;;;;;;;81.60;36.23;;;;;;;-6.20;80.02;98946.03;3950055;88;21646;-80
2021/12/26 14:44:29;;;;;;;83.53;35.57;;;;;;;-6.25;80.29;98950.06;3816097;91;21156;-80
2021/12/26 14:50:31;;;;;;;97.90;36.80;;;;;;;-6.28;80.30;98953.78;3762493;92;21102;-81
2021/12/26 14:56:53;;;;;;;95.73;35.93;;;;;;;-6.49;80.14;98946.32;3857791;91;21152;-80
2021/12/26 15:02:58;;;;;;;87.13;35.63;;;;;;;-6.58;80.08;98958.02;3981436;87;21064;-80
2021/12/26 15:09:02;;;;;;;77.60;29.63;;;;;;;-6.81;80.21;98950.55;3967531;89;21571;-80
2021/12/26 15:15:32;;;;;;;106.13;40.40;;;;;;;-6.92;80.59;98952.13;3960899;88;21449;-80
2021/12/26 15:21:33;;;;;;;91.40;37.50;;;;;;;-6.98;80.54;98953.97;3971970;89;21091;-81
2021/12/26 15:27:35;;;;;;;107.90;42.57;;;;;;;-7.19;80.51;98954.19;3978629;87;21106;-80
2021/12/26 15:33:46;;;;;;;107.47;39.70;;;;;;;-7.36;80.63;98961.02;3980680;88;21575;-80
2021/12/26 15:39:48;;;;;;;113.20;42.53;;;;;;;-7.53;80.65;98963.63;3978982;88;21162;-79
2021/12/26 15:45:49;;;;;;;111.37;44.27;;;;;;;-7.65;80.67;98961.69;3987320;87;21144;-79
2021/12/26 15:51:52;;;;;;;110.83;42.93;;;;;;;-7.77;80.94;98960.58;3976673;89;21089;-80
2021/12/26 15:57:53;;;;;;;115.70;46.30;;;;;;;-7.86;80.81;98957.33;3960710;89;21075;-78
2021/12/26 16:03:55;;;;;;;130.87;49.23;;;;;;;-7.93;81.15;98958.88;3965972;89;21061;-80
2021/12/26 16:09:56;;;;;;;121.23;49.37;;;;;;;-7.98;81.06;98968.14;3959186;88;21068;-80
2021/12/26 16:15:59;;;;;;;142.77;57.77;;;;;;;-8.07;81.19;98971.02;3971833;88;21110;-80
2021/12/26 16:22:33;;;;;;;151.93;61.20;;;;;;;-8.19;80.92;98972.52;3955529;88;21668;-79
2021/12/26 16:28:51;;;;;;;158.43;61.07;;;;;;;-8.28;81.46;98975.41;3960295;89;22306;-81
2021/12/26 16:34:52;;;;;;;154.40;58.97;;;;;;;-8.38;81.48;98983.82;3962517;88;21048;-79
2021/12/26 16:40:54;;;;;;;159.27;66.20;;;;;;;-8.48;81.46;98982.40;3971391;88;21276;-78
2021/12/26 16:46:55;;;;;;;174.93;69.70;;;;;;;-8.59;81.43;98990.00;3960737;88;21100;-79
2021/12/26 16:52:56;;;;;;;176.27;69.97;;;;;;;-8.72;81.54;98993.86;3971071;88;21540;-79
2021/12/26 16:58:58;;;;;;;166.93;70.23;;;;;;;-8.79;81.57;98988.48;3980724;88;21132;-80
2021/12/26 17:05:02;;;;;;;169.87;70.70;;;;;;;-8.86;81.50;98980.72;3981945;89;21917;-79
2021/12/26 17:11:04;;;;;;;176.50;70.57;;;;;;;-8.98;81.49;98988.03;3986057;88;21495;-79
2021/12/26 17:17:06;;;;;;;189.80;74.83;;;;;;;-9.15;81.48;98990.48;3982347;88;21151;-79
2021/12/26 17:23:07;;;;;;;150.00;63.27;;;;;;;-9.23;81.76;98989.59;3946384;89;21104;-79
2021/12/26 17:29:09;;;;;;;170.87;64.67;;;;;;;-9.20;82.14;98995.72;3976884;88;21096;-80
2021/12/26 17:35:10;;;;;;;199.60;77.63;;;;;;;-9.27;81.89;98998.55;3968680;88;21088;-79
2021/12/26 17:41:12;;;;;;;169.43;64.43;;;;;;;-9.34;82.03;99000.61;3980538;89;21720;-79
2021/12/26 17:47:14;;;;;;;168.37;67.63;;;;;;;-9.35;82.16;98996.36;3968708;88;21123;-79
2021/12/26 17:53:16;;;;;;;205.30;77.50;;;;;;;-9.36;82.19;98995.28;3979769;88;21045;-79
2021/12/26 17:59:17;;;;;;;215.97;87.53;;;;;;;-9.43;82.26;98990.67;3849740;88;9999865;-79
2021/12/26 18:05:19;;;;;;;183.30;74.53;;;;;;;-9.49;82.32;98988.50;3964088;89;21090;-79
2021/12/26 18:11:20;;;;;;;184.10;78.33;;;;;;;-9.56;82.33;98984.41;3958675;89;21996;-80
2021/12/26 18:17:23;;;;;;;249.00;94.67;;;;;;;-9.63;82.47;98983.28;3976038;89;21094;-79
2021/12/26 18:23:33;;;;;;;230.17;84.10;;;;;;;-9.67;82.51;98983.48;3965773;88;21042;-80
2021/12/26 18:29:34;;;;;;;210.93;79.53;;;;;;;-9.74;82.67;98980.23;3939708;88;21070;-80
2021/12/26 18:35:36;;;;;;;170.97;68.73;;;;;;;-9.77;82.93;98994.47;3960995;88;21219;-79
2021/12/26 18:41:37;;;;;;;185.57;72.33;;;;;;;-9.78;83.14;98987.04;3962406;88;21474;-79
2021/12/26 18:47:38;;;;;;;183.17;68.57;;;;;;;-9.84;83.09;98991.99;3964104;88;21060;-79
2021/12/26 18:53:42;;;;;;;217.43;82.50;;;;;;;-9.96;83.02;98982.03;3965697;88;21100;-79
2021/12/26 19:00:10;;;;;;;221.13;90.30;;;;;;;-10.05;83.08;98985.61;3835158;88;10000324;-79
2021/12/26 19:06:13;;;;;;;184.10;69.47;;;;;;;-10.11;83.29;98984.47;3963680;88;21051;-79
2021/12/26 19:12:14;;;;;;;186.13;71.43;;;;;;;-10.16;83.18;98988.36;3936919;88;21027;-79
2021/12/26 19:18:17;;;;;;;192.87;69.83;;;;;;;-10.19;83.29;98979.58;3967232;88;21024;-79
2021/12/26 19:24:33;;;;;;;197.70;74.73;;;;;;;-10.25;83.36;98978.72;3945310;88;21548;-79
2021/12/26 19:30:34;;;;;;;189.77;73.13;;;;;;;-10.30;83.24;98987.09;3939735;89;21079;-79
2021/12/26 19:36:52;;;;;;;186.77;70.20;;;;;;;-10.37;83.37;98989.92;3956042;89;21052;-79
2021/12/26 19:42:53;;;;;;;205.60;72.60;;;;;;;-10.43;83.12;98987.42;3977510;89;21084;-79
2021/12/26 19:55:25;;;;;;;214.77;76.37;;;;;;;-10.54;83.12;98989.08;3947631;88;21074;-80
2021/12/26 20:01:27;;;;;;;217.53;78.53;;;;;;;-10.60;83.14;98997.98;3924908;89;21171;-80
2021/12/26 20:07:28;;;;;;;208.67;77.37;;;;;;;-10.67;83.15;98994.70;3928921;90;21087;-79
2021/12/26 20:13:32;;;;;;;219.13;81.90;;;;;;;-10.74;83.25;98994.58;3905250;89;21099;-79
2021/12/26 20:19:33;;;;;;;205.90;80.53;;;;;;;-10.84;83.17;98979.84;3895013;90;21099;-80
2021/12/26 20:25:35;;;;;;;196.90;75.10;;;;;;;-10.91;83.28;98987.92;3948354;90;21029;-79
2021/12/26 20:31:37;;;;;;;215.10;83.20;;;;;;;-10.96;83.28;98989.14;3917962;89;21025;-79
2021/12/26 20:37:38;;;;;;;213.60;80.43;;;;;;;-11.04;83.17;98985.58;3918896;89;21017;-80
2021/12/26 20:43:39;;;;;;;225.50;80.33;;;;;;;-11.11;83.22;98976.98;3909819;89;21117;-80
2021/12/26 20:49:41;;;;;;;216.03;78.10;;;;;;;-11.17;83.19;98975.28;3906062;90;21067;-79
2021/12/26 20:55:43;;;;;;;252.60;87.80;;;;;;;-11.18;83.33;98968.92;3931460;89;21029;-79
2021/12/26 21:01:45;;;;;;;221.47;76.83;;;;;;;-11.23;83.34;98972.27;3928642;89;21065;-79
2021/12/26 21:07:47;;;;;;;251.83;84.00;;;;;;;-11.24;83.67;98991.01;3932749;89;21079;-79
2021/12/26 21:13:48;;;;;;;234.73;74.57;;;;;;;-11.19;83.57;98993.72;3936732;89;21102;-78
2021/12/26 21:19:50;;;;;;;230.27;78.93;;;;;;;-11.19;83.65;98988.44;3929164;89;21088;-79
2021/12/26 21:25:53;;;;;;;225.70;81.27;;;;;;;-11.15;83.72;98997.00;3932013;89;21072;-80
2021/12/26 21:31:54;;;;;;;209.57;78.47;;;;;;;-11.18;83.61;98994.02;3905401;89;21017;-79
2021/12/26 21:37:56;;;;;;;200.70;71.87;;;;;;;-11.25;83.38;98990.19;3935379;89;21046;-79
2021/12/26 21:43:58;;;;;;;181.10;70.93;;;;;;;-11.29;83.53;98987.75;3931740;89;21130;-78
2021/12/26 21:49:59;;;;;;;186.90;66.00;;;;;;;-11.30;83.78;98980.84;3933551;90;21061;-78
2021/12/26 21:56:04;;;;;;;186.10;68.07;;;;;;;-11.34;83.59;98976.27;3938694;88;21065;-78
2021/12/26 22:02:08;;;;;;;188.10;65.80;;;;;;;-11.38;83.50;98974.60;3957154;89;21053;-79
2021/12/26 22:08:10;;;;;;;180.40;65.78;;;;;;;-11.41;83.58;98978.25;3958463;88;21143;-78
2021/12/26 22:14:11;;;;;;;205.40;70.93;;;;;;;-11.48;83.55;98982.34;3962191;88;21069;-79
2021/12/26 22:20:13;;;;;;;200.20;71.40;;;;;;;-11.52;83.74;98985.16;3948823;90;21021;-79
2021/12/26 22:26:15;;;;;;;216.23;77.70;;;;;;;-11.52;83.69;98983.33;3931398;88;21077;-79
2021/12/26 22:32:17;;;;;;;296.83;106.83;;;;;;;-11.55;83.72;98983.80;3959700;89;21653;-78
2021/12/26 22:38:18;;;;;;;190.80;69.50;;;;;;;-11.60;83.70;98973.12;3952038;89;21141;-79
2021/12/26 22:44:20;;;;;;;199.60;71.47;;;;;;;-11.63;83.73;98972.30;3943983;90;21065;-79
2021/12/26 22:50:23;;;;;;;179.03;62.10;;;;;;;-11.69;83.66;98960.03;3966114;90;21073;-79
2021/12/26 22:56:25;;;;;;;182.37;64.60;;;;;;;-11.76;83.70;98963.30;3963946;88;21065;-80
2021/12/26 23:02:27;;;;;;;171.20;58.67;;;;;;;-11.82;83.57;98950.23;3963957;88;21053;-79
2021/12/26 23:08:30;;;;;;;177.00;59.07;;;;;;;-11.91;83.59;98951.63;3956923;88;21089;-79
2021/12/26 23:14:32;;;;;;;162.43;55.63;;;;;;;-11.97;83.63;98943.32;3961670;88;21659;-80
2021/12/26 23:20:35;;;;;;;157.20;56.40;;;;;;;-11.98;83.49;98950.42;3960639;88;21088;-78
2021/12/26 23:26:42;;;;;;;155.73;58.60;;;;;;;-12.01;83.59;98945.61;3953816;88;21054;-79
2021/12/26 23:32:43;;;;;;;195.60;65.53;;;;;;;-12.00;83.60;98950.38;3965494;88;21060;-78
2021/12/26 23:38:45;;;;;;;187.73;65.63;;;;;;;-12.03;83.67;98936.33;3955395;88;21096;-79
2021/12/26 23:44:50;;;;;;;176.73;56.83;;;;;;;-12.04;83.75;98929.46;3968582;88;21080;-79
2021/12/26 23:50:51;;;;;;;174.90;55.93;;;;;;;-12.05;83.86;98931.80;3956310;89;21068;-79
2021/12/26 23:56:52;;;;;;;163.33;52.93;;;;;;;-12.03;83.93;98928.41;3963308;89;21594;-79
